sensor_id;sensor_type;location;lat;lon;timestamp;temperature;humidity
3660;DHT22;1846;51.482;7.224;2023-06-14T00:01:49;20.40;1.00
3660;DHT22;1846;51.482;7.224;2023-06-14T00:04:16;20.40;1.00
3660;DHT22;1846;51.482;7.224;2023-06-14T00:06:44;20.30;1.00
3660;DHT22;1846;51.482;7.224;2023-06-14T00:09:12;20.20;1.00
3660;DHT22;1846;51.482;7.224;2023-06-14T00:11:39;20.20;1.00
3660;DHT22;1846;51.482;7.224;2023-06-14T00:14:07;20.10;1.00
3660;DHT22;1846;51.482;7.224;2023-06-14T00:16:35;20.10;1.00
3660;DHT22;1846;51.482;7.224;2023-06-14T00:19:04;20.00;1.00
3660;DHT22;1846;51.482;7.224;2023-06-14T00:21:31;20.00;1.00
3660;DHT22;1846;51.482;7.224;2023-06-14T00:23:58;19.90;1.00
3660;DHT22;1846;51.482;7.224;2023-06-14T00:26:25;19.80;1.00
3660;DHT22;1846;51.482;7.224;2023-06-14T00:28:52;19.80;1.00
3660;DHT22;1846;51.482;7.224;2023-06-14T00:31:20;19.70;1.00
3660;DHT22;1846;51.482;7.224;2023-06-14T00:33:47;19.60;1.00
3660;DHT22;1846;51.482;7.224;2023-06-14T00:36:14;19.50;1.00
3660;DHT22;1846;51.482;7.224;2023-06-14T00:38:41;19.40;1.00
3660;DHT22;1846;51.482;7.224;2023-06-14T00:41:08;19.40;1.00
3660;DHT22;1846;51.482;7.224;2023-06-14T00:43:35;19.30;1.00
3660;DHT22;1846;51.482;7.224;2023-06-14T00:46:02;19.20;1.00
3660;DHT22;1846;51.482;7.224;2023-06-14T00:48:30;19.20;1.00
3660;DHT22;1846;51.482;7.224;2023-06-14T00:50:58;19.20;1.00
3660;DHT22;1846;51.482;7.224;2023-06-14T00:53:29;19.10;1.00
3660;DHT22;1846;51.482;7.224;2023-06-14T00:55:59;19.00;1.00
3660;DHT22;1846;51.482;7.224;2023-06-14T00:58:26;19.00;1.00
3660;DHT22;1846;51.482;7.224;2023-06-14T01:00:54;18.90;1.00
3660;DHT22;1846;51.482;7.224;2023-06-14T01:03:21;19.00;1.00
3660;DHT22;1846;51.482;7.224;2023-06-14T01:05:52;18.90;1.00
3660;DHT22;1846;51.482;7.224;2023-06-14T01:08:24;18.80;1.00
3660;DHT22;1846;51.482;7.224;2023-06-14T01:11:01;18.80;1.00
3660;DHT22;1846;51.482;7.224;2023-06-14T01:13:33;18.70;1.00
3660;DHT22;1846;51.482;7.224;2023-06-14T01:16:01;18.70;1.00
3660;DHT22;1846;51.482;7.224;2023-06-14T01:18:28;18.70;1.00
3660;DHT22;1846;51.482;7.224;2023-06-14T01:20:57;18.70;1.00
3660;DHT22;1846;51.482;7.224;2023-06-14T01:23:25;18.70;1.00
3660;DHT22;1846;51.482;7.224;2023-06-14T01:25:57;18.60;1.00
3660;DHT22;1846;51.482;7.224;2023-06-14T01:28:26;18.50;1.00
3660;DHT22;1846;51.482;7.224;2023-06-14T01:31:00;18.50;1.00
3660;DHT22;1846;51.482;7.224;2023-06-14T01:33:31;18.50;1.00
3660;DHT22;1846;51.482;7.224;2023-06-14T01:36:00;18.50;1.00
3660;DHT22;1846;51.482;7.224;2023-06-14T01:38:30;18.50;1.00
3660;DHT22;1846;51.482;7.224;2023-06-14T01:40:58;18.40;1.00
3660;DHT22;1846;51.482;7.224;2023-06-14T01:43:28;18.40;1.00
3660;DHT22;1846;51.482;7.224;2023-06-14T01:45:57;18.30;1.00
3660;DHT22;1846;51.482;7.224;2023-06-14T01:48:25;18.30;1.00
3660;DHT22;1846;51.482;7.224;2023-06-14T01:50:52;18.20;1.00
3660;DHT22;1846;51.482;7.224;2023-06-14T01:53:19;18.20;1.00
3660;DHT22;1846;51.482;7.224;2023-06-14T01:55:48;18.20;1.00
3660;DHT22;1846;51.482;7.224;2023-06-14T01:58:15;18.20;1.00
3660;DHT22;1846;51.482;7.224;2023-06-14T02:00:43;18.20;1.00
3660;DHT22;1846;51.482;7.224;2023-06-14T02:03:10;18.20;1.00
3660;DHT22;1846;51.482;7.224;2023-06-14T02:05:38;18.10;1.00
3660;DHT22;1846;51.482;7.224;2023-06-14T02:08:06;18.10;1.00
3660;DHT22;1846;51.482;7.224;2023-06-14T02:10:33;18.10;1.00
3660;DHT22;1846;51.482;7.224;2023-06-14T02:13:01;18.10;1.00
3660;DHT22;1846;51.482;7.224;2023-06-14T02:15:28;18.00;1.00
3660;DHT22;1846;51.482;7.224;2023-06-14T02:17:59;17.90;1.00
3660;DHT22;1846;51.482;7.224;2023-06-14T02:20:27;17.90;1.00
3660;DHT22;1846;51.482;7.224;2023-06-14T02:22:54;17.90;1.00
3660;DHT22;1846;51.482;7.224;2023-06-14T02:25:21;17.90;1.00
3660;DHT22;1846;51.482;7.224;2023-06-14T02:27:48;17.80;1.00
3660;DHT22;1846;51.482;7.224;2023-06-14T02:30:16;17.80;1.00
3660;DHT22;1846;51.482;7.224;2023-06-14T02:32:43;17.80;1.00
3660;DHT22;1846;51.482;7.224;2023-06-14T02:35:10;17.80;1.00
3660;DHT22;1846;51.482;7.224;2023-06-14T02:37:38;17.70;1.00
3660;DHT22;1846;51.482;7.224;2023-06-14T02:40:06;17.70;1.00
3660;DHT22;1846;51.482;7.224;2023-06-14T02:42:34;17.60;1.00
3660;DHT22;1846;51.482;7.224;2023-06-14T02:45:01;17.60;1.00
3660;DHT22;1846;51.482;7.224;2023-06-14T02:47:31;17.50;1.00
3660;DHT22;1846;51.482;7.224;2023-06-14T02:49:57;17.40;1.00
3660;DHT22;1846;51.482;7.224;2023-06-14T02:52:24;17.40;1.00
3660;DHT22;1846;51.482;7.224;2023-06-14T02:54:51;17.40;1.00
3660;DHT22;1846;51.482;7.224;2023-06-14T02:57:19;17.40;1.00
3660;DHT22;1846;51.482;7.224;2023-06-14T02:59:46;17.30;1.00
3660;DHT22;1846;51.482;7.224;2023-06-14T03:02:13;17.20;1.00
3660;DHT22;1846;51.482;7.224;2023-06-14T03:04:42;17.20;1.00
3660;DHT22;1846;51.482;7.224;2023-06-14T03:07:10;17.20;1.00
3660;DHT22;1846;51.482;7.224;2023-06-14T03:09:38;17.20;1.00
3660;DHT22;1846;51.482;7.224;2023-06-14T03:12:06;17.20;1.00
3660;DHT22;1846;51.482;7.224;2023-06-14T03:14:35;17.20;1.00
3660;DHT22;1846;51.482;7.224;2023-06-14T03:17:02;17.20;1.00
3660;DHT22;1846;51.482;7.224;2023-06-14T03:19:30;17.10;1.00
3660;DHT22;1846;51.482;7.224;2023-06-14T03:21:58;17.10;1.00
3660;DHT22;1846;51.482;7.224;2023-06-14T03:24:25;17.10;1.00
3660;DHT22;1846;51.482;7.224;2023-06-14T03:26:54;17.00;1.00
3660;DHT22;1846;51.482;7.224;2023-06-14T03:29:22;17.00;1.00
3660;DHT22;1846;51.482;7.224;2023-06-14T03:31:59;17.00;1.00
3660;DHT22;1846;51.482;7.224;2023-06-14T03:34:26;16.90;1.00
3660;DHT22;1846;51.482;7.224;2023-06-14T03:36:53;16.90;1.00
3660;DHT22;1846;51.482;7.224;2023-06-14T03:39:22;16.90;1.00
3660;DHT22;1846;51.482;7.224;2023-06-14T03:41:49;16.90;1.00
3660;DHT22;1846;51.482;7.224;2023-06-14T03:44:17;16.90;1.00
3660;DHT22;1846;51.482;7.224;2023-06-14T03:46:44;16.80;1.00
3660;DHT22;1846;51.482;7.224;2023-06-14T03:49:11;16.80;1.00
3660;DHT22;1846;51.482;7.224;2023-06-14T03:51:39;16.80;1.00
3660;DHT22;1846;51.482;7.224;2023-06-14T03:54:06;16.80;1.00
3660;DHT22;1846;51.482;7.224;2023-06-14T03:56:34;16.80;1.00
3660;DHT22;1846;51.482;7.224;2023-06-14T03:59:01;16.90;1.00
3660;DHT22;1846;51.482;7.224;2023-06-14T04:01:28;17.00;1.00
3660;DHT22;1846;51.482;7.224;2023-06-14T04:03:56;16.90;1.00
3660;DHT22;1846;51.482;7.224;2023-06-14T04:06:24;16.90;1.00
3660;DHT22;1846;51.482;7.224;2023-06-14T04:08:58;16.90;1.00
3660;DHT22;1846;51.482;7.224;2023-06-14T04:11:27;16.90;1.00
3660;DHT22;1846;51.482;7.224;2023-06-14T04:13:56;16.90;1.00
3660;DHT22;1846;51.482;7.224;2023-06-14T04:16:23;16.90;1.00
3660;DHT22;1846;51.482;7.224;2023-06-14T04:18:50;16.80;1.00
3660;DHT22;1846;51.482;7.224;2023-06-14T04:21:18;16.80;1.00
3660;DHT22;1846;51.482;7.224;2023-06-14T04:23:45;16.90;1.00
3660;DHT22;1846;51.482;7.224;2023-06-14T04:26:12;16.80;1.00
3660;DHT22;1846;51.482;7.224;2023-06-14T04:28:40;16.90;1.00
3660;DHT22;1846;51.482;7.224;2023-06-14T04:31:08;16.90;1.00
3660;DHT22;1846;51.482;7.224;2023-06-14T04:33:37;16.90;1.00
3660;DHT22;1846;51.482;7.224;2023-06-14T04:36:09;17.00;1.00
3660;DHT22;1846;51.482;7.224;2023-06-14T04:38:37;16.90;1.00
3660;DHT22;1846;51.482;7.224;2023-06-14T04:41:04;16.90;1.00
3660;DHT22;1846;51.482;7.224;2023-06-14T04:43:31;16.90;1.00
3660;DHT22;1846;51.482;7.224;2023-06-14T04:46:03;17.00;1.00
3660;DHT22;1846;51.482;7.224;2023-06-14T04:48:33;17.00;1.00
3660;DHT22;1846;51.482;7.224;2023-06-14T04:51:00;17.00;1.00
3660;DHT22;1846;51.482;7.224;2023-06-14T04:53:29;17.10;1.00
3660;DHT22;1846;51.482;7.224;2023-06-14T04:55:56;17.10;1.00
3660;DHT22;1846;51.482;7.224;2023-06-14T04:58:23;17.20;1.00
3660;DHT22;1846;51.482;7.224;2023-06-14T05:00:50;17.20;1.00
3660;DHT22;1846;51.482;7.224;2023-06-14T05:03:17;17.30;1.00
3660;DHT22;1846;51.482;7.224;2023-06-14T05:05:48;17.30;1.00
3660;DHT22;1846;51.482;7.224;2023-06-14T05:08:16;17.30;1.00
3660;DHT22;1846;51.482;7.224;2023-06-14T05:10:43;17.40;1.00
3660;DHT22;1846;51.482;7.224;2023-06-14T05:13:10;17.40;1.00
3660;DHT22;1846;51.482;7.224;2023-06-14T05:15:37;17.50;1.00
3660;DHT22;1846;51.482;7.224;2023-06-14T05:18:04;17.50;1.00
3660;DHT22;1846;51.482;7.224;2023-06-14T05:20:34;17.70;1.00
3660;DHT22;1846;51.482;7.224;2023-06-14T05:23:04;17.60;1.00
3660;DHT22;1846;51.482;7.224;2023-06-14T05:25:30;17.70;1.00
3660;DHT22;1846;51.482;7.224;2023-06-14T05:27:57;17.70;1.00
3660;DHT22;1846;51.482;7.224;2023-06-14T05:30:25;17.80;1.00
3660;DHT22;1846;51.482;7.224;2023-06-14T05:32:54;17.80;1.00
3660;DHT22;1846;51.482;7.224;2023-06-14T05:35:21;17.80;1.00
3660;DHT22;1846;51.482;7.224;2023-06-14T05:37:49;17.80;1.00
3660;DHT22;1846;51.482;7.224;2023-06-14T05:40:17;17.90;1.00
3660;DHT22;1846;51.482;7.224;2023-06-14T05:42:44;18.00;1.00
3660;DHT22;1846;51.482;7.224;2023-06-14T05:45:11;18.00;1.00
3660;DHT22;1846;51.482;7.224;2023-06-14T05:47:38;18.00;1.00
3660;DHT22;1846;51.482;7.224;2023-06-14T05:50:06;18.10;1.00
3660;DHT22;1846;51.482;7.224;2023-06-14T05:52:33;18.10;1.00
3660;DHT22;1846;51.482;7.224;2023-06-14T05:55:00;18.20;1.00
3660;DHT22;1846;51.482;7.224;2023-06-14T05:57:29;18.20;1.00
3660;DHT22;1846;51.482;7.224;2023-06-14T05:59:56;18.40;1.00
3660;DHT22;1846;51.482;7.224;2023-06-14T06:02:23;18.40;1.00
3660;DHT22;1846;51.482;7.224;2023-06-14T06:04:59;18.50;1.00
3660;DHT22;1846;51.482;7.224;2023-06-14T06:07:31;18.50;1.00
3660;DHT22;1846;51.482;7.224;2023-06-14T06:09:58;18.60;1.00
3660;DHT22;1846;51.482;7.224;2023-06-14T06:12:26;18.70;1.00
3660;DHT22;1846;51.482;7.224;2023-06-14T06:14:54;18.80;1.00
3660;DHT22;1846;51.482;7.224;2023-06-14T06:17:22;18.80;1.00
3660;DHT22;1846;51.482;7.224;2023-06-14T06:19:49;18.90;1.00
3660;DHT22;1846;51.482;7.224;2023-06-14T06:22:16;19.00;1.00
3660;DHT22;1846;51.482;7.224;2023-06-14T06:24:43;19.10;1.00
3660;DHT22;1846;51.482;7.224;2023-06-14T06:27:10;19.20;1.00
3660;DHT22;1846;51.482;7.224;2023-06-14T06:29:38;19.20;1.00
3660;DHT22;1846;51.482;7.224;2023-06-14T06:32:07;19.30;1.00
3660;DHT22;1846;51.482;7.224;2023-06-14T06:34:34;19.40;1.00
3660;DHT22;1846;51.482;7.224;2023-06-14T06:37:03;19.40;1.00
3660;DHT22;1846;51.482;7.224;2023-06-14T06:39:29;19.40;1.00
3660;DHT22;1846;51.482;7.224;2023-06-14T06:41:56;19.50;1.00
3660;DHT22;1846;51.482;7.224;2023-06-14T06:44:23;19.60;1.00
3660;DHT22;1846;51.482;7.224;2023-06-14T06:46:50;19.60;1.00
3660;DHT22;1846;51.482;7.224;2023-06-14T06:49:19;19.70;1.00
3660;DHT22;1846;51.482;7.224;2023-06-14T06:51:59;19.70;1.00
3660;DHT22;1846;51.482;7.224;2023-06-14T06:54:27;19.80;1.00
3660;DHT22;1846;51.482;7.224;2023-06-14T06:56:54;19.90;1.00
3660;DHT22;1846;51.482;7.224;2023-06-14T06:59:21;19.80;1.00
3660;DHT22;1846;51.482;7.224;2023-06-14T07:01:48;19.90;1.00
3660;DHT22;1846;51.482;7.224;2023-06-14T07:04:15;19.90;1.00
3660;DHT22;1846;51.482;7.224;2023-06-14T07:06:45;20.00;1.00
3660;DHT22;1846;51.482;7.224;2023-06-14T07:09:13;20.10;1.00
3660;DHT22;1846;51.482;7.224;2023-06-14T07:11:42;20.10;1.00
3660;DHT22;1846;51.482;7.224;2023-06-14T07:14:09;20.10;1.00
3660;DHT22;1846;51.482;7.224;2023-06-14T07:16:37;20.20;1.00
3660;DHT22;1846;51.482;7.224;2023-06-14T07:19:04;20.30;1.00
3660;DHT22;1846;51.482;7.224;2023-06-14T07:21:31;20.30;1.00
3660;DHT22;1846;51.482;7.224;2023-06-14T07:23:59;20.50;1.00
3660;DHT22;1846;51.482;7.224;2023-06-14T07:26:26;20.40;1.00
3660;DHT22;1846;51.482;7.224;2023-06-14T07:28:53;20.40;1.00
3660;DHT22;1846;51.482;7.224;2023-06-14T07:31:20;20.40;1.00
3660;DHT22;1846;51.482;7.224;2023-06-14T07:33:47;20.50;1.00
3660;DHT22;1846;51.482;7.224;2023-06-14T07:36:14;20.50;1.00
3660;DHT22;1846;51.482;7.224;2023-06-14T07:38:43;20.50;1.00
3660;DHT22;1846;51.482;7.224;2023-06-14T07:41:12;20.50;1.00
3660;DHT22;1846;51.482;7.224;2023-06-14T07:43:39;20.50;1.00
3660;DHT22;1846;51.482;7.224;2023-06-14T07:46:06;20.60;1.00
3660;DHT22;1846;51.482;7.224;2023-06-14T07:48:33;20.50;1.00
3660;DHT22;1846;51.482;7.224;2023-06-14T07:51:01;20.50;1.00
3660;DHT22;1846;51.482;7.224;2023-06-14T07:53:28;20.50;1.00
3660;DHT22;1846;51.482;7.224;2023-06-14T07:55:56;20.60;1.00
3660;DHT22;1846;51.482;7.224;2023-06-14T07:58:24;20.60;1.00
3660;DHT22;1846;51.482;7.224;2023-06-14T08:00:51;20.60;1.00
3660;DHT22;1846;51.482;7.224;2023-06-14T08:03:18;20.80;1.00
3660;DHT22;1846;51.482;7.224;2023-06-14T08:05:45;20.80;1.00
3660;DHT22;1846;51.482;7.224;2023-06-14T08:08:12;20.80;1.00
3660;DHT22;1846;51.482;7.224;2023-06-14T08:10:39;20.90;1.00
3660;DHT22;1846;51.482;7.224;2023-06-14T08:13:06;20.90;1.00
3660;DHT22;1846;51.482;7.224;2023-06-14T08:15:36;20.90;1.00
3660;DHT22;1846;51.482;7.224;2023-06-14T08:18:03;20.90;1.00
3660;DHT22;1846;51.482;7.224;2023-06-14T08:20:30;21.00;1.00
3660;DHT22;1846;51.482;7.224;2023-06-14T08:22:57;21.00;1.00
3660;DHT22;1846;51.482;7.224;2023-06-14T08:25:24;21.10;1.00
3660;DHT22;1846;51.482;7.224;2023-06-14T08:27:52;21.10;1.00
3660;DHT22;1846;51.482;7.224;2023-06-14T08:30:19;21.10;1.00
3660;DHT22;1846;51.482;7.224;2023-06-14T08:32:47;21.00;1.00
3660;DHT22;1846;51.482;7.224;2023-06-14T08:35:14;21.10;1.00
3660;DHT22;1846;51.482;7.224;2023-06-14T08:37:46;21.10;1.00
3660;DHT22;1846;51.482;7.224;2023-06-14T08:40:19;21.20;1.00
3660;DHT22;1846;51.482;7.224;2023-06-14T08:42:48;21.20;1.00
3660;DHT22;1846;51.482;7.224;2023-06-14T08:45:17;21.30;1.00
3660;DHT22;1846;51.482;7.224;2023-06-14T08:47:44;21.30;1.00
3660;DHT22;1846;51.482;7.224;2023-06-14T08:50:13;21.30;1.00
3660;DHT22;1846;51.482;7.224;2023-06-14T08:55:24;21.30;1.00
3660;DHT22;1846;51.482;7.224;2023-06-14T08:57:54;21.20;1.00
3660;DHT22;1846;51.482;7.224;2023-06-14T09:00:22;21.30;1.00
3660;DHT22;1846;51.482;7.224;2023-06-14T09:02:50;21.30;1.00
3660;DHT22;1846;51.482;7.224;2023-06-14T09:05:24;21.40;1.00
3660;DHT22;1846;51.482;7.224;2023-06-14T09:07:52;21.40;1.00
3660;DHT22;1846;51.482;7.224;2023-06-14T09:10:21;21.40;1.00
3660;DHT22;1846;51.482;7.224;2023-06-14T09:12:48;21.50;1.00
3660;DHT22;1846;51.482;7.224;2023-06-14T09:15:15;21.60;1.00
3660;DHT22;1846;51.482;7.224;2023-06-14T09:17:42;21.70;1.00
3660;DHT22;1846;51.482;7.224;2023-06-14T09:20:10;21.70;1.00
3660;DHT22;1846;51.482;7.224;2023-06-14T09:22:40;21.70;1.00
3660;DHT22;1846;51.482;7.224;2023-06-14T09:25:08;21.80;1.00
3660;DHT22;1846;51.482;7.224;2023-06-14T09:27:35;21.80;1.00
3660;DHT22;1846;51.482;7.224;2023-06-14T09:30:06;21.80;1.00
3660;DHT22;1846;51.482;7.224;2023-06-14T09:32:37;21.80;1.00
3660;DHT22;1846;51.482;7.224;2023-06-14T09:35:06;21.80;1.00
3660;DHT22;1846;51.482;7.224;2023-06-14T09:37:34;21.80;1.00
3660;DHT22;1846;51.482;7.224;2023-06-14T09:40:05;21.80;1.00
3660;DHT22;1846;51.482;7.224;2023-06-14T09:42:33;21.90;1.00
3660;DHT22;1846;51.482;7.224;2023-06-14T09:45:02;22.00;1.00
3660;DHT22;1846;51.482;7.224;2023-06-14T09:47:29;22.10;1.00
3660;DHT22;1846;51.482;7.224;2023-06-14T09:49:56;22.20;1.00
3660;DHT22;1846;51.482;7.224;2023-06-14T09:52:24;22.20;1.00
3660;DHT22;1846;51.482;7.224;2023-06-14T09:54:53;22.10;1.00
3660;DHT22;1846;51.482;7.224;2023-06-14T09:57:23;22.20;1.00
3660;DHT22;1846;51.482;7.224;2023-06-14T09:59:53;22.20;1.00
3660;DHT22;1846;51.482;7.224;2023-06-14T10:02:24;22.30;1.00
3660;DHT22;1846;51.482;7.224;2023-06-14T10:04:58;22.20;1.00
3660;DHT22;1846;51.482;7.224;2023-06-14T10:07:27;22.20;1.00
3660;DHT22;1846;51.482;7.224;2023-06-14T10:09:57;22.30;1.00
3660;DHT22;1846;51.482;7.224;2023-06-14T10:12:26;22.40;1.00
3660;DHT22;1846;51.482;7.224;2023-06-14T10:14:55;22.40;1.00
3660;DHT22;1846;51.482;7.224;2023-06-14T10:17:47;22.40;1.00
3660;DHT22;1846;51.482;7.224;2023-06-14T10:20:21;22.60;1.00
3660;DHT22;1846;51.482;7.224;2023-06-14T10:22:57;23.50;1.00
3660;DHT22;1846;51.482;7.224;2023-06-14T10:25:29;24.30;1.00
3660;DHT22;1846;51.482;7.224;2023-06-14T10:28:14;25.00;1.00
3660;DHT22;1846;51.482;7.224;2023-06-14T10:31:02;26.10;1.00
3660;DHT22;1846;51.482;7.224;2023-06-14T10:33:30;26.90;1.00
3660;DHT22;1846;51.482;7.224;2023-06-14T10:36:11;27.90;1.00
3660;DHT22;1846;51.482;7.224;2023-06-14T10:38:57;28.60;1.00
3660;DHT22;1846;51.482;7.224;2023-06-14T10:41:26;29.00;1.00
3660;DHT22;1846;51.482;7.224;2023-06-14T10:46:52;30.00;1.00
3660;DHT22;1846;51.482;7.224;2023-06-14T10:49:20;30.40;1.00
3660;DHT22;1846;51.482;7.224;2023-06-14T10:51:50;31.20;1.00
3660;DHT22;1846;51.482;7.224;2023-06-14T10:54:20;31.40;1.00
3660;DHT22;1846;51.482;7.224;2023-06-14T10:56:48;31.40;1.00
3660;DHT22;1846;51.482;7.224;2023-06-14T10:59:18;31.80;1.00
3660;DHT22;1846;51.482;7.224;2023-06-14T11:01:57;32.40;1.00
3660;DHT22;1846;51.482;7.224;2023-06-14T11:04:34;33.00;1.00
3660;DHT22;1846;51.482;7.224;2023-06-14T11:07:33;32.80;1.00
3660;DHT22;1846;51.482;7.224;2023-06-14T11:10:10;32.60;1.00
3660;DHT22;1846;51.482;7.224;2023-06-14T11:12:46;32.40;1.00
3660;DHT22;1846;51.482;7.224;2023-06-14T11:15:15;32.90;1.00
3660;DHT22;1846;51.482;7.224;2023-06-14T11:17:50;32.90;1.00
3660;DHT22;1846;51.482;7.224;2023-06-14T11:20:19;32.20;1.00
3660;DHT22;1846;51.482;7.224;2023-06-14T11:22:47;32.30;1.00
3660;DHT22;1846;51.482;7.224;2023-06-14T11:25:14;32.10;1.00
3660;DHT22;1846;51.482;7.224;2023-06-14T11:27:42;32.00;1.00
3660;DHT22;1846;51.482;7.224;2023-06-14T11:30:10;32.50;1.00
3660;DHT22;1846;51.482;7.224;2023-06-14T11:32:39;33.00;1.00
3660;DHT22;1846;51.482;7.224;2023-06-14T11:35:07;33.60;1.00
3660;DHT22;1846;51.482;7.224;2023-06-14T11:37:36;33.30;1.00
3660;DHT22;1846;51.482;7.224;2023-06-14T11:40:06;33.30;1.00
3660;DHT22;1846;51.482;7.224;2023-06-14T11:42:35;33.70;1.00
3660;DHT22;1846;51.482;7.224;2023-06-14T11:45:03;34.00;1.00
3660;DHT22;1846;51.482;7.224;2023-06-14T11:47:35;34.10;1.00
3660;DHT22;1846;51.482;7.224;2023-06-14T11:50:05;34.10;1.00
3660;DHT22;1846;51.482;7.224;2023-06-14T11:52:39;34.10;1.00
3660;DHT22;1846;51.482;7.224;2023-06-14T11:55:10;33.90;1.00
3660;DHT22;1846;51.482;7.224;2023-06-14T11:57:37;33.90;1.00
3660;DHT22;1846;51.482;7.224;2023-06-14T12:00:07;34.50;1.00
3660;DHT22;1846;51.482;7.224;2023-06-14T12:02:38;35.10;1.00
3660;DHT22;1846;51.482;7.224;2023-06-14T12:05:08;35.50;1.00
3660;DHT22;1846;51.482;7.224;2023-06-14T12:07:36;35.50;1.00
3660;DHT22;1846;51.482;7.224;2023-06-14T12:10:06;35.50;1.00
3660;DHT22;1846;51.482;7.224;2023-06-14T12:12:38;35.90;1.00
3660;DHT22;1846;51.482;7.224;2023-06-14T12:15:07;35.70;1.00
3660;DHT22;1846;51.482;7.224;2023-06-14T12:17:35;35.60;1.00
3660;DHT22;1846;51.482;7.224;2023-06-14T12:20:09;34.40;1.00
3660;DHT22;1846;51.482;7.224;2023-06-14T12:22:46;34.20;1.00
3660;DHT22;1846;51.482;7.224;2023-06-14T12:25:24;34.60;1.00
3660;DHT22;1846;51.482;7.224;2023-06-14T12:27:53;34.60;1.00
3660;DHT22;1846;51.482;7.224;2023-06-14T12:30:20;34.60;1.00
3660;DHT22;1846;51.482;7.224;2023-06-14T12:32:47;34.30;1.00
3660;DHT22;1846;51.482;7.224;2023-06-14T12:35:18;33.50;1.00
3660;DHT22;1846;51.482;7.224;2023-06-14T12:37:45;33.30;1.00
3660;DHT22;1846;51.482;7.224;2023-06-14T12:40:13;33.50;1.00
3660;DHT22;1846;51.482;7.224;2023-06-14T12:42:40;33.40;1.00
3660;DHT22;1846;51.482;7.224;2023-06-14T12:45:08;33.10;1.00
3660;DHT22;1846;51.482;7.224;2023-06-14T12:47:36;33.30;1.00
3660;DHT22;1846;51.482;7.224;2023-06-14T12:50:04;33.10;1.00
3660;DHT22;1846;51.482;7.224;2023-06-14T12:52:32;32.80;1.00
3660;DHT22;1846;51.482;7.224;2023-06-14T12:55:02;31.90;1.00
3660;DHT22;1846;51.482;7.224;2023-06-14T12:57:29;31.40;1.00
3660;DHT22;1846;51.482;7.224;2023-06-14T12:59:56;31.10;1.00
3660;DHT22;1846;51.482;7.224;2023-06-14T13:02:23;30.90;1.00
3660;DHT22;1846;51.482;7.224;2023-06-14T13:04:51;30.60;1.00
3660;DHT22;1846;51.482;7.224;2023-06-14T13:07:18;30.10;1.00
3660;DHT22;1846;51.482;7.224;2023-06-14T13:09:47;29.30;1.00
3660;DHT22;1846;51.482;7.224;2023-06-14T13:12:14;28.70;1.00
3660;DHT22;1846;51.482;7.224;2023-06-14T13:14:41;28.20;1.00
3660;DHT22;1846;51.482;7.224;2023-06-14T13:17:09;27.80;1.00
3660;DHT22;1846;51.482;7.224;2023-06-14T13:19:36;27.30;1.00
3660;DHT22;1846;51.482;7.224;2023-06-14T13:22:03;27.10;1.00
3660;DHT22;1846;51.482;7.224;2023-06-14T13:24:30;26.90;1.00
3660;DHT22;1846;51.482;7.224;2023-06-14T13:26:59;26.60;1.00
3660;DHT22;1846;51.482;7.224;2023-06-14T13:29:26;26.50;1.00
3660;DHT22;1846;51.482;7.224;2023-06-14T13:31:53;26.40;1.00
3660;DHT22;1846;51.482;7.224;2023-06-14T13:34:20;26.30;1.00
3660;DHT22;1846;51.482;7.224;2023-06-14T13:36:49;26.20;1.00
3660;DHT22;1846;51.482;7.224;2023-06-14T13:39:16;26.10;1.00
3660;DHT22;1846;51.482;7.224;2023-06-14T13:41:43;26.10;1.00
3660;DHT22;1846;51.482;7.224;2023-06-14T13:44:11;26.20;1.00
3660;DHT22;1846;51.482;7.224;2023-06-14T13:46:40;26.20;1.00
3660;DHT22;1846;51.482;7.224;2023-06-14T13:49:08;26.10;1.00
3660;DHT22;1846;51.482;7.224;2023-06-14T13:51:36;26.00;1.00
3660;DHT22;1846;51.482;7.224;2023-06-14T13:54:03;25.90;1.00
3660;DHT22;1846;51.482;7.224;2023-06-14T13:56:30;25.70;1.00
3660;DHT22;1846;51.482;7.224;2023-06-14T13:59:00;25.80;1.00
3660;DHT22;1846;51.482;7.224;2023-06-14T14:01:28;25.80;1.00
3660;DHT22;1846;51.482;7.224;2023-06-14T14:03:56;25.50;1.00
3660;DHT22;1846;51.482;7.224;2023-06-14T14:06:24;25.40;1.00
3660;DHT22;1846;51.482;7.224;2023-06-14T14:08:51;25.40;1.00
3660;DHT22;1846;51.482;7.224;2023-06-14T14:11:18;25.50;1.00
3660;DHT22;1846;51.482;7.224;2023-06-14T14:13:46;25.50;1.00
3660;DHT22;1846;51.482;7.224;2023-06-14T14:16:13;25.40;1.00
3660;DHT22;1846;51.482;7.224;2023-06-14T14:18:41;25.40;1.00
3660;DHT22;1846;51.482;7.224;2023-06-14T14:21:09;25.40;1.00
3660;DHT22;1846;51.482;7.224;2023-06-14T14:23:36;25.40;1.00
3660;DHT22;1846;51.482;7.224;2023-06-14T14:26:03;25.40;1.00
3660;DHT22;1846;51.482;7.224;2023-06-14T14:28:30;25.50;1.00
3660;DHT22;1846;51.482;7.224;2023-06-14T14:30:58;25.60;1.00
3660;DHT22;1846;51.482;7.224;2023-06-14T14:33:25;25.60;1.00
3660;DHT22;1846;51.482;7.224;2023-06-14T14:35:53;25.50;1.00
3660;DHT22;1846;51.482;7.224;2023-06-14T14:38:20;25.40;1.00
3660;DHT22;1846;51.482;7.224;2023-06-14T14:40:47;25.30;1.00
3660;DHT22;1846;51.482;7.224;2023-06-14T14:43:14;25.30;1.00
3660;DHT22;1846;51.482;7.224;2023-06-14T14:45:41;25.30;1.00
3660;DHT22;1846;51.482;7.224;2023-06-14T14:48:08;25.20;1.00
3660;DHT22;1846;51.482;7.224;2023-06-14T14:50:35;25.20;1.00
3660;DHT22;1846;51.482;7.224;2023-06-14T14:53:04;25.20;1.00
3660;DHT22;1846;51.482;7.224;2023-06-14T14:55:34;25.10;1.00
3660;DHT22;1846;51.482;7.224;2023-06-14T14:58:03;24.90;1.00
3660;DHT22;1846;51.482;7.224;2023-06-14T15:00:32;24.90;1.00
3660;DHT22;1846;51.482;7.224;2023-06-14T15:02:59;25.00;1.00
3660;DHT22;1846;51.482;7.224;2023-06-14T15:05:26;25.00;1.00
3660;DHT22;1846;51.482;7.224;2023-06-14T15:07:53;24.90;1.00
3660;DHT22;1846;51.482;7.224;2023-06-14T15:10:21;24.80;1.00
3660;DHT22;1846;51.482;7.224;2023-06-14T15:12:48;24.70;1.00
3660;DHT22;1846;51.482;7.224;2023-06-14T15:15:15;24.80;1.00
3660;DHT22;1846;51.482;7.224;2023-06-14T15:17:42;24.80;1.00
3660;DHT22;1846;51.482;7.224;2023-06-14T15:20:10;24.80;1.00
3660;DHT22;1846;51.482;7.224;2023-06-14T15:22:38;25.00;1.00
3660;DHT22;1846;51.482;7.224;2023-06-14T15:25:06;25.00;1.00
3660;DHT22;1846;51.482;7.224;2023-06-14T15:27:34;25.00;1.00
3660;DHT22;1846;51.482;7.224;2023-06-14T15:30:01;25.10;1.00
3660;DHT22;1846;51.482;7.224;2023-06-14T15:32:28;25.10;1.00
3660;DHT22;1846;51.482;7.224;2023-06-14T15:34:55;25.10;1.00
3660;DHT22;1846;51.482;7.224;2023-06-14T15:37:22;25.20;1.00
3660;DHT22;1846;51.482;7.224;2023-06-14T15:39:49;25.00;1.00
3660;DHT22;1846;51.482;7.224;2023-06-14T15:42:17;25.10;1.00
3660;DHT22;1846;51.482;7.224;2023-06-14T15:44:45;25.10;1.00
3660;DHT22;1846;51.482;7.224;2023-06-14T15:47:12;25.10;1.00
3660;DHT22;1846;51.482;7.224;2023-06-14T15:49:39;25.10;1.00
3660;DHT22;1846;51.482;7.224;2023-06-14T15:52:07;25.20;1.00
3660;DHT22;1846;51.482;7.224;2023-06-14T15:54:34;25.10;1.00
3660;DHT22;1846;51.482;7.224;2023-06-14T15:57:01;25.00;1.00
3660;DHT22;1846;51.482;7.224;2023-06-14T15:59:28;25.00;1.00
3660;DHT22;1846;51.482;7.224;2023-06-14T16:01:56;25.00;1.00
3660;DHT22;1846;51.482;7.224;2023-06-14T16:04:23;25.10;1.00
3660;DHT22;1846;51.482;7.224;2023-06-14T16:06:50;24.90;1.00
3660;DHT22;1846;51.482;7.224;2023-06-14T16:09:17;24.90;1.00
3660;DHT22;1846;51.482;7.224;2023-06-14T16:11:44;24.90;1.00
3660;DHT22;1846;51.482;7.224;2023-06-14T16:14:11;25.00;1.00
3660;DHT22;1846;51.482;7.224;2023-06-14T16:16:39;25.00;1.00
3660;DHT22;1846;51.482;7.224;2023-06-14T16:19:07;25.10;1.00
3660;DHT22;1846;51.482;7.224;2023-06-14T16:21:34;25.10;1.00
3660;DHT22;1846;51.482;7.224;2023-06-14T16:24:02;24.90;1.00
3660;DHT22;1846;51.482;7.224;2023-06-14T16:26:29;24.80;1.00
3660;DHT22;1846;51.482;7.224;2023-06-14T16:28:56;24.80;1.00
3660;DHT22;1846;51.482;7.224;2023-06-14T16:31:23;24.60;1.00